Aeroporto :
LOGIN :

Iscrizione | Disclaimer

   EN    FR    IT 

 










Sommario :    VFR   VFR Marginale   IFR   IFR Intensivo   IFR Molto Intensivo
Visibilità : 
Base nubi : 
>= 8 km
>= 3000ft
5 / 8 km
1000 / 3000 ft
1500m / 5 km
500 / 1000 ft
800 / 1500m
200 / 500 ft
< 800m
< 200 ft
Simboli :   Temporali  Nebbia  Neve Forte  Precipitazioni Forti  Vento > 20 kt
SIGMETs :   Varie  Temporali  Ghiacco  Turbolenza  Onda orograficha  Ceneri Vulcaniche







- Altitudine del aeroporto : 2356 ft


LZTT - Poprad Tatry

ULTIMO METAR :
  • 240430Z 26010KT 9999 -RA FEW007 SCT043 OVC056 08/07 Q1013 NOSIG

METARs OBSOLETI :
  • 240400Z 27008KT 9999 -RA FEW007 SCT043 OVC056 09/07 Q1013
  • 240330Z 27010KT 9999 -RA FEW007 BKN050 08/07 Q1013
  • 240300Z 27010KT 9999 -RA FEW007 OVC050 09/07 Q1013
  • 240230Z 27010KT 9999 -RA FEW008 OVC060 08/07 Q1013
  • 240200Z 27009KT 9999 -RA FEW008 BKN060 08/07 Q1013

TAF TAF LZTT
Valido dal 24 a 00 ore il 25 a 00 ore UTC


232300Z 2400/2500 26012KT 9999 SCT012 SCT020 BKN050
TEMPO 2400/2407 27008KT -RA BKN008 OVC020
BECMG 2408/2410 VRB02KT SCT015 BKN030
PROB40
TEMPO 2409/2417 5000 SHRA BKN020 FEW025CB
TEMPO 2410/2420 07010KT
BECMG 2417/2419 24004KT FEW015 SCT100
PROB40
TEMPO 2420/2500 VRB02KT 3000 BCFG BKN008
Nessun NOTAM noto per questo aeroporto.



MetMap, La meteo Aeronautica in un colpo d'occhio ! - Copyright ORBIFLY Dicembre 2007 - Disclaimer

ORBIFLY MET'MAP TEAM :

Programmazione e sviluppo : Alexandra Zaïnal
Concezione e sviluppo : Baudouin d'Aumeries
Co-Programmazione e sviluppo : Marc-Olivier Méhu
Supporto tecnico e logistico : Manuel Goepfert
Aiuto per la traduzione : Arnaldo La Scala

Contatto : metmap@orbifly.com




FONTI E CREDITI :

   NOAA